createdAt,value
2023-04-01T00:04:21.759Z,98346.44
2023-04-01T00:09:23.231Z,98346.78
2023-04-01T00:14:24.756Z,98340.69
2023-04-01T00:19:26.523Z,98339.91
2023-04-01T00:24:28.000Z,98337.88
2023-04-01T00:29:31.497Z,98338.19
2023-04-01T00:34:32.972Z,98336.53
2023-04-01T00:39:35.554Z,98336.72
2023-04-01T00:44:38.263Z,98332.25
2023-04-01T00:49:46.091Z,98330.06
2023-04-01T00:54:51.140Z,98333.44
2023-04-01T00:59:55.873Z,98333.63
2023-04-01T01:04:57.304Z,98332.34
2023-04-01T01:10:17.807Z,98340.75
2023-04-01T01:15:26.770Z,98335.72
2023-04-01T01:20:34.207Z,98336.75
2023-04-01T01:26:03.035Z,98332.19
2023-04-01T01:31:18.592Z,98331.84
2023-04-01T01:36:22.070Z,98331.03
2023-04-01T01:41:27.648Z,98333.38
2023-04-01T01:46:31.770Z,98336.25
2023-04-01T01:51:33.413Z,98324.66
2023-04-01T01:56:36.334Z,98332.38
2023-04-01T02:01:43.111Z,98325.66
2023-04-01T02:06:54.737Z,98327.88
2023-04-01T02:12:05.036Z,98332.06
2023-04-01T02:17:10.376Z,98326.00
2023-04-01T02:22:17.436Z,98323.13
2023-04-01T02:27:19.976Z,98316.22
2023-04-01T02:32:21.815Z,98309.44
2023-04-01T02:37:24.128Z,98310.78
2023-04-01T02:42:25.991Z,98311.94
2023-04-01T02:47:27.515Z,98316.88
2023-04-01T02:52:30.339Z,98321.94
2023-04-01T02:57:31.844Z,98318.22
2023-04-01T03:02:33.440Z,98325.28
2023-04-01T03:07:35.003Z,98328.16
2023-04-01T03:12:36.948Z,98330.34
2023-04-01T03:17:39.553Z,98334.41
2023-04-01T03:22:42.969Z,98326.97
2023-04-01T03:27:44.627Z,98338.44
2023-04-01T03:32:46.089Z,98338.78
2023-04-01T03:37:47.783Z,98344.56
2023-04-01T03:42:49.980Z,98343.84
2023-04-01T03:47:51.506Z,98347.22
2023-04-01T03:52:52.931Z,98348.91
2023-04-01T03:57:54.372Z,98352.09
2023-04-01T04:02:57.545Z,98358.25
2023-04-01T04:07:59.143Z,98367.00
2023-04-01T04:13:00.771Z,98359.63
2023-04-01T04:18:02.314Z,98358.75
2023-04-01T04:23:03.789Z,98372.41
2023-04-01T04:28:05.280Z,98374.78
2023-04-01T04:33:06.746Z,98374.56
2023-04-01T04:38:08.206Z,98364.28
2023-04-01T04:43:14.678Z,98371.97
2023-04-01T04:48:19.549Z,98367.47
2023-04-01T04:53:21.167Z,98367.59
2023-04-01T04:58:22.816Z,98362.59
2023-04-01T05:03:24.491Z,98381.09
2023-04-01T05:08:26.134Z,98380.06
2023-04-01T05:13:28.198Z,98379.00
2023-04-01T05:18:29.671Z,98389.16
2023-04-01T05:23:33.146Z,98379.31
2023-04-01T05:28:34.620Z,98384.16
2023-04-01T05:33:36.275Z,98388.84
2023-04-01T05:38:37.968Z,98383.78
2023-04-01T05:43:40.675Z,98385.34
2023-04-01T05:48:42.141Z,98385.94
2023-04-01T05:53:43.963Z,98390.59
2023-04-01T05:58:51.262Z,98374.09
2023-04-01T06:03:52.950Z,98384.69
2023-04-01T06:08:57.530Z,98381.47
2023-04-01T06:14:42.963Z,98395.66
2023-04-01T06:19:53.108Z,98407.13
2023-04-01T06:25:19.053Z,98411.47
2023-04-01T06:30:49.671Z,98408.50
2023-04-01T06:35:59.708Z,98412.91
2023-04-01T06:41:04.405Z,98413.88
2023-04-01T06:46:11.857Z,98411.56
2023-04-01T06:51:19.110Z,98413.34
2023-04-01T06:56:23.796Z,98421.75
2023-04-01T07:01:33.705Z,98427.78
2023-04-01T07:06:48.045Z,98422.41
2023-04-01T07:11:50.155Z,98423.38
2023-04-01T07:17:02.216Z,98422.59
2023-04-01T07:22:36.838Z,98419.75
2023-04-01T07:27:38.260Z,98425.75
2023-04-01T07:32:53.744Z,98425.84
2023-04-01T07:38:41.390Z,98431.28
2023-04-01T07:44:08.480Z,98443.75
2023-04-01T07:49:22.186Z,98447.91
2023-04-01T07:54:25.093Z,98449.63
2023-04-01T07:59:34.483Z,98452.91
2023-04-01T08:04:51.867Z,98455.19
2023-04-01T08:10:21.217Z,98458.44
2023-04-01T08:15:28.653Z,98454.91
2023-04-01T08:20:48.426Z,98470.63
2023-04-01T08:25:56.659Z,98462.81
2023-04-01T08:31:13.545Z,98463.78
2023-04-01T08:36:20.201Z,98477.13
2023-04-01T08:41:42.105Z,98465.47
2023-04-01T08:47:05.243Z,98472.75
2023-04-01T08:52:19.514Z,98476.63
2023-04-01T08:57:58.691Z,98468.91
2023-04-01T09:03:21.808Z,98464.47
2023-04-01T09:08:44.550Z,98463.47
2023-04-01T09:14:00.836Z,98477.31
2023-04-01T09:19:26.639Z,98496.56
2023-04-01T09:24:44.938Z,98497.94
2023-04-01T09:30:08.311Z,98494.88
2023-04-01T09:35:15.681Z,98497.94
2023-04-01T09:40:24.351Z,98497.25
2023-04-01T09:45:47.307Z,98495.91
2023-04-01T09:51:22.142Z,98496.41
2023-04-01T09:56:33.789Z,98496.81
2023-04-01T10:02:13.165Z,98502.81
2023-04-01T10:07:33.203Z,98507.81
2023-04-01T10:12:46.619Z,98508.69
2023-04-01T10:18:09.260Z,98507.44
2023-04-01T10:23:49.504Z,98504.78
2023-04-01T10:29:12.013Z,98513.88
2023-04-01T10:34:49.396Z,98498.13
2023-04-01T10:40:26.983Z,98505.50
2023-04-01T10:45:50.488Z,98507.69
2023-04-01T10:51:10.562Z,98517.78
2023-04-01T10:56:35.025Z,98532.03
2023-04-01T11:02:10.031Z,98535.47
2023-04-01T11:07:29.427Z,98552.34
2023-04-01T11:12:49.386Z,98545.59
2023-04-01T11:18:09.484Z,98537.47
2023-04-01T11:23:21.144Z,98540.06
2023-04-01T11:28:44.260Z,98539.66
2023-04-01T11:34:02.843Z,98544.13
2023-04-01T11:39:22.647Z,98543.25
2023-04-01T11:44:28.432Z,98567.84
2023-04-01T11:49:57.937Z,98557.97
2023-04-01T11:55:24.212Z,98553.53
2023-04-01T12:00:34.182Z,98565.41
2023-04-01T12:05:48.702Z,98560.34
2023-04-01T12:11:02.774Z,98574.28
2023-04-01T12:16:13.402Z,98586.81
2023-04-01T12:21:32.996Z,98573.81
2023-04-01T12:27:11.478Z,98573.09
2023-04-01T12:32:31.866Z,98568.75
2023-04-01T12:38:03.618Z,98580.19
2023-04-01T12:43:42.431Z,98584.03
2023-04-01T12:48:54.794Z,98591.38
2023-04-01T12:54:10.345Z,98587.91
2023-04-01T12:59:55.892Z,98584.53
2023-04-01T13:05:24.346Z,98588.97
2023-04-01T13:11:01.384Z,98599.59
2023-04-01T13:16:24.055Z,98611.75
2023-04-01T13:21:52.728Z,98609.75
2023-04-01T13:27:13.805Z,98622.47
2023-04-01T13:32:44.271Z,98634.38
2023-04-01T13:38:18.304Z,98632.84
2023-04-01T13:43:26.986Z,98641.63
2023-04-01T13:48:37.846Z,98649.06
2023-04-01T13:53:48.323Z,98635.00
2023-04-01T13:59:12.489Z,98646.69
2023-04-01T14:04:45.662Z,98650.91
2023-04-01T14:09:52.757Z,98655.53
2023-04-01T14:15:00.214Z,98652.69
2023-04-01T14:20:26.714Z,98651.19
2023-04-01T14:25:56.251Z,98651.38
2023-04-01T14:31:19.353Z,98653.09
2023-04-01T14:36:48.203Z,98660.88
2023-04-01T14:42:06.122Z,98663.75
2023-04-01T14:47:22.990Z,98660.19
2023-04-01T14:52:37.340Z,98662.66
2023-04-01T14:57:38.884Z,98670.59
2023-04-01T15:03:02.178Z,98661.50
2023-04-01T15:08:10.695Z,98667.63
2023-04-01T15:13:45.617Z,98673.38
2023-04-01T15:19:11.730Z,98667.81
2023-04-01T15:24:21.848Z,98680.31
2023-04-01T15:29:43.841Z,98688.13
2023-04-01T15:34:56.612Z,98692.84
2023-04-01T15:40:23.566Z,98695.88
2023-04-01T15:45:24.912Z,98704.81
2023-04-01T15:50:32.474Z,98709.06
2023-04-01T15:55:55.846Z,98706.56
2023-04-01T16:01:04.196Z,98719.75
2023-04-01T16:06:35.261Z,98720.56
2023-04-01T16:11:48.933Z,98725.78
2023-04-01T16:17:21.466Z,98737.50
2023-04-01T16:22:46.162Z,98747.66
2023-04-01T16:27:59.599Z,98749.50
2023-04-01T16:33:01.467Z,98749.84
2023-04-01T16:38:28.278Z,98755.59
2023-04-01T16:43:40.293Z,98766.00
2023-04-01T16:49:18.018Z,98770.38
2023-04-01T16:54:22.107Z,98784.94
2023-04-01T16:59:30.309Z,98785.56
2023-04-01T17:04:39.440Z,98797.03
2023-04-01T17:09:59.651Z,98810.81
2023-04-01T17:15:23.392Z,98824.34
2023-04-01T17:20:38.669Z,98834.97
2023-04-01T17:25:50.097Z,98843.59
2023-04-01T17:30:57.310Z,98850.69
2023-04-01T17:36:26.359Z,98859.53
2023-04-01T17:41:37.203Z,98862.53
2023-04-01T17:47:29.471Z,98865.44
2023-04-01T17:52:41.020Z,98881.41
2023-04-01T17:57:54.371Z,98886.50
2023-04-01T18:02:56.018Z,98895.75
2023-04-01T18:08:34.202Z,98902.00
2023-04-01T18:13:38.331Z,98912.19
2023-04-01T18:19:17.595Z,98916.75
2023-04-01T18:24:45.048Z,98919.31
2023-04-01T18:30:00.732Z,98923.16
2023-04-01T18:35:29.881Z,98933.34
2023-04-01T18:40:35.281Z,98943.28
2023-04-01T18:45:41.708Z,98954.22
2023-04-01T18:50:57.884Z,98950.25
2023-04-01T18:56:06.299Z,98964.22
2023-04-01T19:01:35.856Z,98972.44
2023-04-01T19:06:40.292Z,98980.13
2023-04-01T19:11:55.547Z,98981.44
2023-04-01T19:17:27.109Z,98994.66
2023-04-01T19:22:35.690Z,98993.66
2023-04-01T19:27:47.149Z,99004.88
2023-04-01T19:33:23.179Z,98999.78
2023-04-01T19:38:37.614Z,99002.06
2023-04-01T19:43:53.869Z,99016.28
2023-04-01T19:49:19.549Z,99018.56
2023-04-01T19:54:20.906Z,99021.13
2023-04-01T19:59:38.339Z,99020.00
2023-04-01T20:04:43.120Z,99038.41
2023-04-01T20:10:07.246Z,99039.59
2023-04-01T20:15:30.865Z,99042.69
2023-04-01T20:20:34.121Z,99052.06
2023-04-01T20:25:53.873Z,99056.75
2023-04-01T20:31:36.230Z,99065.66
2023-04-01T20:36:57.003Z,99072.63
2023-04-01T20:42:17.932Z,99077.59
2023-04-01T20:47:31.483Z,99067.81
2023-04-01T20:52:51.494Z,99082.28
2023-04-01T20:58:20.561Z,99081.59
2023-04-01T21:03:37.225Z,99086.13
2023-04-01T21:08:58.066Z,99092.19
2023-04-01T21:14:28.690Z,99099.16
2023-04-01T21:19:42.267Z,99107.97
2023-04-01T21:24:49.691Z,99110.22
2023-04-01T21:29:56.755Z,99121.38
2023-04-01T21:35:23.125Z,99119.69
2023-04-01T21:41:02.034Z,99142.75
2023-04-01T21:46:29.495Z,99139.66
2023-04-01T21:52:08.059Z,99143.91
2023-04-01T21:57:15.333Z,99149.00
2023-04-01T22:02:22.811Z,99144.00
2023-04-01T22:07:29.607Z,99156.03
2023-04-01T22:12:48.924Z,99152.84
2023-04-01T22:18:14.968Z,99161.59
2023-04-01T22:23:31.798Z,99144.28
2023-04-01T22:28:56.154Z,99173.09
2023-04-01T22:34:17.864Z,99178.47
2023-04-01T22:39:44.574Z,99181.47
2023-04-01T22:44:46.090Z,99185.38
2023-04-01T22:50:17.011Z,99197.25
2023-04-01T22:55:24.988Z,99198.53
2023-04-01T23:00:44.300Z,99195.22
2023-04-01T23:06:06.204Z,99200.59
2023-04-01T23:11:11.417Z,99213.88
2023-04-01T23:16:13.813Z,99215.38
2023-04-01T23:21:22.816Z,99218.78
2023-04-01T23:26:41.533Z,99213.19
2023-04-01T23:31:45.962Z,99226.47
2023-04-01T23:36:50.882Z,99238.50
2023-04-01T23:41:56.009Z,99245.38
2023-04-01T23:47:00.266Z,99260.28
2023-04-01T23:52:31.629Z,99256.56
2023-04-01T23:57:36.128Z,99263.38
